CYPW

Powell River Airport

Powell River, , Canada
METAR CYPW 251800Z 30003KT 20SM FEW002 SCT007 BKN027 13/11 A3034 RMK SF1CU3SC4 SF TR VIS 5 NE SLP277
Observed Flight Rules
Sep-25 @ 18:00 UTC (an hour ago) Marginal Visual Flight Rules
Wind Visibility Clouds
300° at 3 knots 20 miles
  • Few at 200' AGL
  • Scattered at 700' AGL
  • Broken at 2,700' AGL
Temperatures Readings
Current 13°C / 55°F
Dewpoint 11°C / 52°F
Humidity 88%
Altimeter 30.34" Hg
Pressure 1027.7 hPa
Elevation 130
METAR CYPW 251800Z 30003KT 20SM FEW002 SCT007 BKN027 13/11 A3034 RMK SF1CU3SC4 SF TR VIS 5 NE SLP277
Observed Flight Rules
Sep-25 @ 18:00 UTC
(an hour ago)
MVFR
Wind Visibility
300° at 3 knots 20 miles
Clouds
  • Few at 200' AGL
  • Scattered at 700' AGL
  • Broken at 2,700' AGL
Temperature Dewpoint
13°C / 55°F 11°C / 52°F
Humidity Altimeter Pressure
88% 30.34" Hg 1027.7 hPa